createdAt,value
2023-01-31T00:01:17.349Z,87.17
2023-01-31T00:03:45.177Z,87.13
2023-01-31T00:06:19.548Z,86.67
2023-01-31T00:08:47.989Z,86.79
2023-01-31T00:11:15.646Z,86.56
2023-01-31T00:13:42.760Z,86.84
2023-01-31T00:16:10.602Z,86.78
2023-01-31T00:18:39.131Z,86.56
2023-01-31T00:21:12.405Z,86.78
2023-01-31T00:23:40.520Z,86.97
2023-01-31T00:26:09.401Z,86.68
2023-01-31T00:28:35.960Z,87.28
2023-01-31T00:31:02.455Z,87.24
2023-01-31T00:33:28.910Z,87.30
2023-01-31T00:35:55.607Z,87.43
2023-01-31T00:38:22.685Z,87.94
2023-01-31T00:40:53.273Z,88.11
2023-01-31T00:43:20.071Z,88.19
2023-01-31T00:45:46.508Z,88.16
2023-01-31T00:48:13.216Z,88.64
2023-01-31T00:50:39.792Z,88.14
2023-01-31T00:53:06.692Z,88.86
2023-01-31T00:55:33.125Z,88.65
2023-01-31T00:57:59.655Z,88.77
2023-01-31T01:00:26.157Z,88.45
2023-01-31T01:02:53.005Z,88.37
2023-01-31T01:05:19.654Z,88.84
2023-01-31T01:07:46.254Z,88.93
2023-01-31T01:10:13.129Z,89.04
2023-01-31T01:12:40.456Z,88.79
2023-01-31T01:15:07.511Z,88.66
2023-01-31T01:17:34.362Z,88.32
2023-01-31T01:20:03.750Z,88.54
2023-01-31T01:22:31.238Z,88.51
2023-01-31T01:24:57.685Z,88.54
2023-01-31T01:27:24.523Z,88.72
2023-01-31T01:29:50.923Z,88.74
2023-01-31T01:32:17.352Z,88.24
2023-01-31T01:34:43.875Z,88.10
2023-01-31T01:37:12.002Z,88.23
2023-01-31T01:39:39.034Z,87.78
2023-01-31T01:42:05.991Z,88.52
2023-01-31T01:44:49.445Z,88.27
2023-01-31T01:47:37.287Z,87.86
2023-01-31T01:50:10.029Z,87.94
2023-01-31T01:52:44.074Z,87.93
2023-01-31T01:55:24.930Z,87.83
2023-01-31T01:57:56.631Z,88.15
2023-01-31T02:00:26.847Z,87.87
2023-01-31T02:02:56.737Z,87.31
2023-01-31T02:05:30.992Z,87.57
2023-01-31T02:08:00.260Z,86.88
2023-01-31T02:10:41.998Z,87.67
2023-01-31T02:13:08.588Z,87.31
2023-01-31T02:15:35.946Z,87.72
2023-01-31T02:18:02.548Z,87.67
2023-01-31T02:20:50.986Z,87.92
2023-01-31T02:23:54.743Z,86.94
2023-01-31T02:26:58.773Z,87.14
2023-01-31T02:30:14.827Z,87.00
2023-01-31T02:33:10.755Z,87.01
2023-01-31T02:36:19.418Z,86.97
2023-01-31T02:39:07.267Z,87.29
2023-01-31T02:41:48.707Z,87.14
2023-01-31T02:45:14.887Z,87.26
2023-01-31T02:48:04.606Z,88.29
2023-01-31T02:50:44.114Z,89.09
2023-01-31T02:53:27.114Z,88.52
2023-01-31T02:56:23.768Z,89.43
2023-01-31T02:58:58.007Z,89.52
2023-01-31T03:01:31.559Z,90.30
2023-01-31T03:04:01.872Z,90.91
2023-01-31T03:06:28.274Z,90.46
2023-01-31T03:09:11.885Z,90.88
2023-01-31T03:11:54.033Z,90.73
2023-01-31T03:14:31.384Z,90.64
2023-01-31T03:17:46.138Z,90.60
2023-01-31T03:20:21.285Z,90.96
2023-01-31T03:22:59.993Z,91.13
2023-01-31T03:25:30.931Z,91.19
2023-01-31T03:28:06.323Z,92.11
2023-01-31T03:30:39.820Z,91.59
2023-01-31T03:33:13.441Z,91.54
2023-01-31T03:35:43.015Z,92.33
2023-01-31T03:38:20.971Z,91.91
2023-01-31T03:41:37.183Z,91.78
2023-01-31T03:44:09.568Z,91.45
2023-01-31T03:46:44.707Z,92.25
2023-01-31T03:49:15.269Z,92.50
2023-01-31T03:51:48.328Z,91.74
2023-01-31T03:54:26.004Z,92.12
2023-01-31T03:56:58.369Z,92.26
2023-01-31T03:59:31.595Z,91.52
2023-01-31T04:02:01.304Z,92.34
2023-01-31T04:04:37.062Z,92.48
2023-01-31T04:07:03.845Z,91.96
2023-01-31T04:09:31.171Z,91.80
2023-01-31T04:12:01.205Z,92.16
2023-01-31T04:14:28.470Z,92.00
2023-01-31T04:16:55.094Z,92.40
2023-01-31T04:19:21.581Z,92.20
2023-01-31T04:21:48.040Z,92.41
2023-01-31T04:24:14.569Z,92.28
2023-01-31T04:26:41.044Z,92.47
2023-01-31T04:29:07.452Z,91.71
2023-01-31T04:31:34.298Z,92.51
2023-01-31T04:34:00.765Z,92.66
2023-01-31T04:36:27.332Z,92.16
2023-01-31T04:38:53.816Z,92.36
2023-01-31T04:41:20.260Z,92.56
2023-01-31T04:43:46.821Z,92.59
2023-01-31T04:46:13.460Z,92.59
2023-01-31T04:48:41.301Z,92.69
2023-01-31T04:51:08.570Z,92.91
2023-01-31T04:53:35.216Z,92.53
2023-01-31T04:56:02.388Z,92.34
2023-01-31T04:58:29.003Z,92.74
2023-01-31T05:00:55.581Z,92.11
2023-01-31T05:03:22.081Z,92.93
2023-01-31T05:05:49.763Z,92.75
2023-01-31T05:08:16.294Z,92.24
2023-01-31T05:10:43.043Z,92.38
2023-01-31T05:13:10.582Z,92.86
2023-01-31T05:15:38.234Z,92.97
2023-01-31T05:18:04.851Z,92.57
2023-01-31T05:20:36.470Z,93.03
2023-01-31T05:23:03.770Z,92.50
2023-01-31T05:25:31.544Z,92.50
2023-01-31T05:27:58.429Z,92.51
2023-01-31T05:30:25.222Z,92.71
2023-01-31T05:32:51.958Z,92.57
2023-01-31T05:35:19.048Z,91.59
2023-01-31T05:37:46.213Z,91.75
2023-01-31T05:40:14.635Z,92.03
2023-01-31T05:42:41.638Z,92.11
2023-01-31T05:45:09.857Z,91.56
2023-01-31T05:47:36.538Z,91.79
2023-01-31T05:50:03.968Z,91.68
2023-01-31T05:52:30.964Z,91.66
2023-01-31T05:54:57.574Z,91.15
2023-01-31T05:57:24.028Z,91.90
2023-01-31T05:59:50.414Z,91.83
2023-01-31T06:02:16.993Z,90.93
2023-01-31T06:04:43.517Z,91.55
2023-01-31T06:07:09.991Z,90.80
2023-01-31T06:09:38.804Z,90.89
2023-01-31T06:12:05.597Z,91.15
2023-01-31T06:14:32.489Z,90.91
2023-01-31T06:16:59.178Z,90.29
2023-01-31T06:19:25.972Z,90.72
2023-01-31T06:21:52.599Z,90.75
2023-01-31T06:24:19.067Z,91.08
2023-01-31T06:26:45.605Z,90.45
2023-01-31T06:29:12.171Z,90.80
2023-01-31T06:31:38.730Z,90.03
2023-01-31T06:34:05.247Z,90.31
2023-01-31T06:36:34.182Z,89.96
2023-01-31T06:39:00.757Z,90.17
2023-01-31T06:41:27.163Z,90.72
2023-01-31T06:43:53.651Z,90.94
2023-01-31T06:46:20.077Z,90.58
2023-01-31T06:48:48.327Z,90.91
2023-01-31T06:51:16.130Z,90.47
2023-01-31T06:53:42.734Z,90.45
2023-01-31T06:56:10.034Z,89.40
2023-01-31T06:58:36.488Z,88.76
2023-01-31T07:01:11.765Z,88.22
2023-01-31T07:03:38.296Z,88.55
2023-01-31T07:06:06.753Z,88.39
2023-01-31T07:08:35.815Z,87.88
2023-01-31T07:11:03.489Z,87.47
2023-01-31T07:13:30.248Z,88.24
2023-01-31T07:15:57.142Z,88.19
2023-01-31T07:18:23.712Z,87.32
2023-01-31T07:20:50.610Z,87.63
2023-01-31T07:23:17.293Z,86.67
2023-01-31T07:25:43.706Z,86.64
2023-01-31T07:28:11.873Z,86.98
2023-01-31T07:30:39.932Z,87.72
2023-01-31T07:33:06.485Z,87.83
2023-01-31T07:35:33.394Z,86.54
2023-01-31T07:37:59.818Z,87.34
2023-01-31T07:40:26.284Z,86.59
2023-01-31T07:42:57.977Z,86.34
2023-01-31T07:45:24.440Z,86.65
2023-01-31T07:47:51.701Z,86.29
2023-01-31T07:50:18.886Z,86.70
2023-01-31T07:52:45.333Z,86.21
2023-01-31T07:55:11.787Z,86.68
2023-01-31T07:57:38.210Z,86.81
2023-01-31T08:00:25.087Z,86.51
2023-01-31T08:03:29.598Z,86.61
2023-01-31T08:05:56.031Z,85.66
2023-01-31T08:08:22.480Z,85.74
2023-01-31T08:10:48.918Z,86.39
2023-01-31T08:13:15.319Z,86.41
2023-01-31T08:15:41.752Z,86.26
2023-01-31T08:18:08.150Z,86.53
2023-01-31T08:20:37.568Z,86.34
2023-01-31T08:23:03.999Z,86.25
2023-01-31T08:25:30.678Z,85.32
2023-01-31T08:27:58.202Z,85.34
2023-01-31T08:30:24.655Z,85.71
2023-01-31T08:32:51.148Z,85.08
2023-01-31T08:35:17.794Z,84.66
2023-01-31T08:37:44.412Z,84.35
2023-01-31T08:40:11.434Z,84.86
2023-01-31T08:42:38.091Z,83.63
2023-01-31T08:45:05.222Z,83.49
2023-01-31T08:47:31.647Z,83.14
2023-01-31T08:49:58.080Z,82.26
2023-01-31T08:52:24.659Z,82.20
2023-01-31T08:54:51.122Z,81.21
2023-01-31T08:57:17.544Z,80.62
2023-01-31T08:59:43.953Z,78.98
2023-01-31T09:02:11.769Z,78.29
2023-01-31T09:04:38.188Z,77.39
2023-01-31T09:07:04.604Z,77.29
2023-01-31T09:09:31.513Z,76.47
2023-01-31T09:11:57.933Z,75.43
2023-01-31T09:14:24.388Z,74.83
2023-01-31T09:16:50.865Z,73.91
2023-01-31T09:19:17.380Z,74.19
2023-01-31T09:21:43.951Z,73.14
2023-01-31T09:24:11.391Z,72.66
2023-01-31T09:26:38.163Z,73.33
2023-01-31T09:29:04.670Z,72.85
2023-01-31T09:31:31.492Z,73.12
2023-01-31T09:33:58.104Z,73.57
2023-01-31T09:36:25.075Z,73.28
2023-01-31T09:38:57.906Z,73.81
2023-01-31T09:41:38.609Z,73.57
2023-01-31T09:44:34.396Z,73.32
2023-01-31T09:47:14.092Z,73.59
2023-01-31T09:49:52.768Z,73.87
2023-01-31T09:52:19.308Z,74.30
2023-01-31T09:54:45.773Z,74.85
2023-01-31T09:57:12.159Z,74.98
2023-01-31T09:59:51.741Z,74.79
2023-01-31T10:02:45.205Z,73.80
2023-01-31T10:05:38.737Z,74.45
2023-01-31T10:08:20.326Z,74.14
2023-01-31T10:10:54.832Z,73.46
2023-01-31T10:13:29.725Z,74.36
2023-01-31T10:16:03.209Z,74.18
2023-01-31T10:18:33.522Z,73.77
2023-01-31T10:21:06.244Z,74.10
2023-01-31T10:23:41.392Z,73.75
2023-01-31T10:26:46.553Z,73.37
2023-01-31T10:29:29.496Z,73.11
2023-01-31T10:32:08.651Z,72.52
2023-01-31T10:34:43.858Z,72.25
2023-01-31T10:37:19.134Z,72.04
2023-01-31T10:39:51.036Z,72.08
2023-01-31T10:42:27.821Z,71.73
2023-01-31T10:44:58.752Z,70.91
2023-01-31T10:47:34.268Z,70.48
2023-01-31T10:50:03.074Z,71.13
2023-01-31T10:53:00.432Z,70.97
2023-01-31T10:55:51.902Z,70.09
2023-01-31T10:58:22.994Z,70.72
2023-01-31T11:00:50.374Z,70.27
2023-01-31T11:03:18.289Z,70.40
2023-01-31T11:05:57.455Z,70.31
2023-01-31T11:08:35.001Z,70.24
2023-01-31T11:11:08.270Z,70.41
2023-01-31T11:13:34.891Z,70.37
2023-01-31T11:16:03.010Z,70.94
2023-01-31T11:18:36.732Z,71.79
2023-01-31T11:21:05.288Z,71.85
2023-01-31T11:23:35.104Z,71.71
2023-01-31T11:26:02.251Z,71.78
2023-01-31T11:28:41.698Z,70.91
2023-01-31T11:31:19.569Z,70.37
2023-01-31T11:33:58.151Z,69.33
2023-01-31T11:36:26.544Z,69.32
2023-01-31T11:38:54.676Z,67.96
2023-01-31T11:41:28.897Z,68.22
2023-01-31T11:44:10.778Z,67.01
2023-01-31T11:46:48.404Z,66.25
2023-01-31T11:49:22.589Z,63.53
2023-01-31T11:51:50.476Z,62.83
2023-01-31T11:54:31.009Z,62.90
2023-01-31T11:56:59.552Z,63.26
2023-01-31T11:59:30.610Z,64.53
2023-01-31T12:01:59.885Z,64.12
2023-01-31T12:04:44.607Z,64.38
2023-01-31T12:07:24.088Z,64.10
2023-01-31T12:09:50.904Z,63.38
2023-01-31T12:12:29.945Z,64.31
2023-01-31T12:15:01.376Z,63.34
2023-01-31T12:17:30.256Z,64.69
2023-01-31T12:20:26.538Z,65.51
2023-01-31T12:23:22.048Z,65.22
2023-01-31T12:26:11.013Z,65.21
2023-01-31T12:28:59.056Z,66.17
2023-01-31T12:31:42.343Z,66.34
2023-01-31T12:34:58.970Z,67.07
2023-01-31T12:37:28.539Z,67.83
2023-01-31T12:40:25.180Z,68.22
2023-01-31T12:42:57.822Z,67.95
2023-01-31T12:45:49.764Z,67.69
2023-01-31T12:48:49.511Z,68.49
2023-01-31T12:51:30.728Z,67.81
2023-01-31T12:54:19.488Z,68.43
2023-01-31T12:56:55.848Z,68.44
2023-01-31T12:59:50.876Z,68.21
2023-01-31T13:02:33.608Z,68.74
2023-01-31T13:05:37.308Z,68.27
2023-01-31T13:08:17.467Z,68.36
2023-01-31T13:11:00.789Z,68.49
2023-01-31T13:13:40.967Z,67.98
2023-01-31T13:16:39.482Z,67.57
2023-01-31T13:19:11.424Z,67.92
2023-01-31T13:21:44.149Z,67.80
2023-01-31T13:24:14.460Z,67.92
2023-01-31T13:26:50.143Z,67.50
2023-01-31T13:29:39.679Z,68.19
2023-01-31T13:32:24.429Z,67.64
2023-01-31T13:35:05.415Z,68.17
2023-01-31T13:37:37.576Z,68.28
2023-01-31T13:40:16.513Z,68.29
2023-01-31T13:42:43.160Z,69.06
2023-01-31T13:45:22.481Z,68.20
2023-01-31T13:48:08.078Z,68.70
2023-01-31T13:50:42.222Z,68.77
2023-01-31T13:53:17.283Z,68.20
2023-01-31T13:55:47.438Z,68.43
2023-01-31T13:58:21.223Z,68.02
2023-01-31T14:00:56.275Z,67.65
2023-01-31T14:03:22.681Z,68.28
2023-01-31T14:05:59.548Z,67.76
2023-01-31T14:08:39.324Z,68.28
2023-01-31T14:11:28.856Z,69.05
2023-01-31T14:14:19.834Z,69.30
2023-01-31T14:16:48.995Z,69.27
2023-01-31T14:19:19.608Z,69.98
2023-01-31T14:21:54.503Z,69.17
2023-01-31T14:24:46.982Z,69.73
2023-01-31T14:27:19.814Z,69.51
2023-01-31T14:29:48.970Z,69.53
2023-01-31T14:32:38.055Z,69.34
2023-01-31T14:35:13.711Z,69.18
2023-01-31T14:38:04.352Z,69.31
2023-01-31T14:40:37.235Z,69.47
2023-01-31T14:43:12.955Z,69.31
2023-01-31T14:45:58.362Z,69.16
2023-01-31T14:48:38.851Z,68.66
2023-01-31T14:51:56.044Z,68.58
2023-01-31T14:54:40.051Z,68.87
2023-01-31T14:57:12.775Z,69.57
2023-01-31T14:59:57.198Z,69.46
2023-01-31T15:02:32.880Z,69.89
2023-01-31T15:05:04.392Z,69.84
2023-01-31T15:07:30.811Z,69.65
2023-01-31T15:09:58.007Z,69.83
2023-01-31T15:13:00.660Z,70.32
2023-01-31T15:15:40.160Z,69.99
2023-01-31T15:18:19.336Z,68.96
2023-01-31T15:20:50.984Z,68.95
2023-01-31T15:23:24.025Z,69.19
2023-01-31T15:25:52.389Z,68.29
2023-01-31T15:28:25.059Z,68.77
2023-01-31T15:30:53.432Z,68.30
2023-01-31T15:33:28.240Z,68.94
2023-01-31T15:36:09.267Z,69.49
2023-01-31T15:38:43.485Z,68.95
2023-01-31T15:41:22.593Z,68.51
2023-01-31T15:43:53.083Z,68.44
2023-01-31T15:46:22.291Z,68.62
2023-01-31T15:48:48.756Z,68.93
2023-01-31T15:51:16.453Z,69.65
2023-01-31T15:53:43.101Z,68.88
2023-01-31T15:56:21.391Z,69.24
2023-01-31T15:58:50.795Z,69.24
2023-01-31T16:01:20.395Z,69.44
2023-01-31T16:03:53.894Z,69.80
2023-01-31T16:06:36.317Z,69.71
2023-01-31T16:09:06.201Z,69.97
2023-01-31T16:11:35.091Z,70.61
2023-01-31T16:14:04.377Z,70.17
2023-01-31T16:16:34.867Z,70.63
2023-01-31T16:19:02.211Z,70.57
2023-01-31T16:21:37.808Z,70.70
2023-01-31T16:24:16.551Z,70.57
2023-01-31T16:27:05.473Z,70.64
2023-01-31T16:29:44.541Z,70.95
2023-01-31T16:32:21.665Z,71.22
2023-01-31T16:34:58.196Z,71.10
2023-01-31T16:37:36.837Z,71.50
2023-01-31T16:40:44.920Z,71.80
2023-01-31T16:43:22.041Z,71.96
2023-01-31T16:45:55.359Z,72.56
2023-01-31T16:48:25.742Z,72.93
2023-01-31T16:50:54.133Z,73.27
2023-01-31T16:53:33.687Z,73.54
2023-01-31T16:56:18.331Z,73.55
2023-01-31T16:58:49.247Z,73.70
2023-01-31T17:01:19.636Z,74.46
2023-01-31T17:03:59.788Z,74.06
2023-01-31T17:06:26.680Z,74.27
2023-01-31T17:08:53.214Z,74.96
2023-01-31T17:11:29.002Z,74.62
2023-01-31T17:14:06.028Z,74.93
2023-01-31T17:16:32.436Z,75.10
2023-01-31T17:18:58.852Z,75.31
2023-01-31T17:21:26.727Z,75.33
2023-01-31T17:23:53.190Z,75.37
2023-01-31T17:26:23.038Z,75.68
2023-01-31T17:29:00.814Z,75.73
2023-01-31T17:31:29.487Z,75.95
2023-01-31T17:33:56.137Z,76.00
2023-01-31T17:36:22.991Z,75.92
2023-01-31T17:38:50.176Z,76.28
2023-01-31T17:41:19.054Z,76.14
2023-01-31T17:43:46.151Z,76.48
2023-01-31T17:46:15.252Z,76.70
2023-01-31T17:48:42.314Z,77.41
2023-01-31T17:51:09.245Z,77.55
2023-01-31T17:53:47.684Z,78.09
2023-01-31T17:56:16.843Z,78.23
2023-01-31T17:58:43.299Z,78.34
2023-01-31T18:01:10.961Z,78.72
2023-01-31T18:03:37.406Z,78.53
2023-01-31T18:06:05.626Z,78.66
2023-01-31T18:08:32.392Z,78.73
2023-01-31T18:11:10.639Z,79.31
2023-01-31T18:13:38.117Z,79.22
2023-01-31T18:16:06.719Z,79.67
2023-01-31T18:18:34.793Z,80.44
2023-01-31T18:21:02.410Z,80.83
2023-01-31T18:23:28.855Z,80.78
2023-01-31T18:25:55.273Z,81.44
2023-01-31T18:28:21.703Z,81.95
2023-01-31T18:30:48.234Z,82.51
2023-01-31T18:33:14.703Z,82.61
2023-01-31T18:35:41.124Z,83.28
2023-01-31T18:38:08.616Z,83.51
2023-01-31T18:40:35.060Z,83.48
2023-01-31T18:43:01.483Z,83.78
2023-01-31T18:45:27.906Z,83.44
2023-01-31T18:47:54.506Z,84.04
2023-01-31T18:50:20.950Z,84.09
2023-01-31T18:52:47.360Z,84.79
2023-01-31T18:55:13.814Z,84.45
2023-01-31T18:57:40.233Z,84.84
2023-01-31T19:00:07.326Z,85.42
2023-01-31T19:02:33.803Z,85.52
2023-01-31T19:05:00.391Z,85.43
2023-01-31T19:07:27.749Z,85.41
2023-01-31T19:09:54.161Z,85.43
2023-01-31T19:12:20.903Z,85.39
2023-01-31T19:14:48.359Z,85.51
2023-01-31T19:17:15.810Z,85.41
2023-01-31T19:19:42.266Z,85.02
2023-01-31T19:22:08.688Z,84.92
2023-01-31T19:24:35.108Z,84.88
2023-01-31T19:27:01.616Z,84.75
2023-01-31T19:29:28.814Z,84.94
2023-01-31T19:31:55.480Z,84.53
2023-01-31T19:34:21.973Z,84.38
2023-01-31T19:36:49.035Z,84.41
2023-01-31T19:39:15.546Z,84.51
2023-01-31T19:41:45.110Z,84.44
2023-01-31T19:44:11.624Z,84.02
2023-01-31T19:46:38.192Z,84.20
2023-01-31T19:49:05.129Z,84.08
2023-01-31T19:51:31.889Z,83.82
2023-01-31T19:54:01.453Z,84.34
2023-01-31T19:56:28.772Z,83.81
2023-01-31T19:58:55.662Z,84.16
2023-01-31T20:01:22.701Z,83.49
2023-01-31T20:03:50.122Z,83.96
2023-01-31T20:06:21.877Z,83.54
2023-01-31T20:08:52.630Z,84.12
2023-01-31T20:11:19.380Z,83.67
2023-01-31T20:13:45.882Z,84.02
2023-01-31T20:16:13.283Z,83.72
2023-01-31T20:18:42.328Z,84.24
2023-01-31T20:21:14.768Z,84.46
2023-01-31T20:23:41.522Z,83.99
2023-01-31T20:26:08.348Z,84.33
2023-01-31T20:28:34.785Z,84.12
2023-01-31T20:31:06.224Z,84.19
2023-01-31T20:33:32.767Z,83.99
2023-01-31T20:35:59.379Z,84.55
2023-01-31T20:38:25.899Z,84.29
2023-01-31T20:40:54.171Z,84.69
2023-01-31T20:43:23.033Z,84.78
2023-01-31T20:45:50.079Z,84.51
2023-01-31T20:48:17.276Z,84.71
2023-01-31T20:50:44.219Z,84.46
2023-01-31T20:53:19.414Z,84.67
2023-01-31T20:55:53.240Z,84.75
2023-01-31T20:58:19.634Z,84.69
2023-01-31T21:00:46.203Z,84.28
2023-01-31T21:03:12.603Z,84.91
2023-01-31T21:05:39.264Z,85.14
2023-01-31T21:08:06.140Z,85.24
2023-01-31T21:10:32.630Z,85.01
2023-01-31T21:12:59.086Z,85.25
2023-01-31T21:15:27.799Z,85.43
2023-01-31T21:17:55.066Z,85.29
2023-01-31T21:20:21.882Z,85.30
2023-01-31T21:22:48.516Z,85.37
2023-01-31T21:25:14.938Z,85.65
2023-01-31T21:27:41.442Z,85.50
2023-01-31T21:30:08.606Z,85.74
2023-01-31T21:32:35.030Z,85.46
2023-01-31T21:35:03.338Z,85.98
2023-01-31T21:37:29.946Z,85.54
2023-01-31T21:39:56.372Z,85.68
2023-01-31T21:42:22.808Z,85.65
2023-01-31T21:44:49.209Z,85.89
2023-01-31T21:47:15.909Z,85.56
2023-01-31T21:49:42.736Z,85.45
2023-01-31T21:52:09.930Z,84.94
2023-01-31T21:54:36.894Z,85.05
2023-01-31T21:57:03.568Z,84.81
2023-01-31T21:59:29.986Z,85.13
2023-01-31T22:01:56.501Z,84.47
2023-01-31T22:04:23.405Z,84.05
2023-01-31T22:06:50.746Z,84.38
2023-01-31T22:09:18.003Z,84.82
2023-01-31T22:11:47.360Z,84.43
2023-01-31T22:14:15.588Z,84.69
2023-01-31T22:16:42.740Z,84.34
2023-01-31T22:19:11.568Z,84.56
2023-01-31T22:21:38.543Z,84.60
2023-01-31T22:24:07.335Z,84.85
2023-01-31T22:26:36.985Z,84.34
2023-01-31T22:29:06.169Z,84.60
2023-01-31T22:31:33.708Z,84.26
2023-01-31T22:34:00.942Z,84.54
2023-01-31T22:36:27.727Z,84.91
2023-01-31T22:38:54.653Z,85.16
2023-01-31T22:41:22.114Z,85.08
2023-01-31T22:43:50.271Z,85.15
2023-01-31T22:46:28.384Z,85.18
2023-01-31T22:48:55.291Z,84.93
2023-01-31T22:51:24.212Z,85.05
2023-01-31T22:53:51.288Z,85.18
2023-01-31T22:56:20.656Z,85.59
2023-01-31T22:58:47.936Z,85.54
2023-01-31T23:01:20.341Z,85.58
2023-01-31T23:03:47.842Z,86.18
2023-01-31T23:06:15.328Z,85.85
2023-01-31T23:08:42.636Z,86.29
2023-01-31T23:11:14.683Z,86.36
2023-01-31T23:13:42.078Z,86.46
2023-01-31T23:16:09.902Z,86.58
2023-01-31T23:18:36.480Z,86.86
2023-01-31T23:21:29.082Z,87.14
2023-01-31T23:23:55.474Z,87.86
2023-01-31T23:26:21.899Z,88.21
2023-01-31T23:28:48.302Z,88.68
2023-01-31T23:31:14.905Z,89.44
2023-01-31T23:33:41.413Z,89.91
2023-01-31T23:36:08.148Z,90.26
2023-01-31T23:38:34.666Z,90.77
2023-01-31T23:41:01.060Z,91.01
2023-01-31T23:43:27.467Z,91.70
2023-01-31T23:45:53.928Z,91.03
2023-01-31T23:48:20.372Z,91.08
2023-01-31T23:50:46.863Z,91.49
2023-01-31T23:53:13.298Z,90.61
2023-01-31T23:55:39.733Z,91.11
2023-01-31T23:58:06.292Z,90.49
